createdAt,value
2023-04-11T00:00:25.608Z,4.50
2023-04-11T00:05:31.466Z,4.72
2023-04-11T00:10:34.735Z,5.55
2023-04-11T00:15:39.396Z,4.40
2023-04-11T00:20:44.056Z,4.47
2023-04-11T00:25:48.347Z,4.95
2023-04-11T00:30:51.613Z,4.70
2023-04-11T00:35:56.992Z,4.35
2023-04-11T00:41:00.384Z,3.97
2023-04-11T00:46:04.141Z,4.72
2023-04-11T00:51:09.356Z,4.45
2023-04-11T01:01:16.791Z,4.80
2023-04-11T01:06:23.463Z,4.13
2023-04-11T01:11:27.344Z,4.68
2023-04-11T01:16:30.743Z,4.40
2023-04-11T01:21:36.313Z,4.35
2023-04-11T01:26:41.051Z,5.35
2023-04-11T01:31:45.209Z,4.72
2023-04-11T01:36:48.722Z,4.80
2023-04-11T01:41:54.253Z,5.00
2023-04-11T01:46:57.883Z,4.53
2023-04-11T01:52:01.172Z,4.45
2023-04-11T01:57:06.206Z,4.28
2023-04-11T02:02:09.710Z,3.83
2023-04-11T02:07:13.181Z,4.40
2023-04-11T02:12:17.952Z,4.40
2023-04-11T02:17:25.927Z,4.05
2023-04-11T02:22:29.352Z,4.25
2023-04-11T02:27:34.536Z,5.40
2023-04-11T02:32:38.425Z,4.30
2023-04-11T02:37:41.684Z,4.53
2023-04-11T02:42:46.312Z,4.78
2023-04-11T02:47:50.055Z,4.45
2023-04-11T02:52:54.235Z,4.97
2023-04-11T02:58:03.023Z,4.63
2023-04-11T03:03:07.327Z,4.60
2023-04-11T03:08:17.979Z,4.20
2023-04-11T03:13:28.504Z,4.10
2023-04-11T03:18:31.991Z,4.95
2023-04-11T03:23:39.854Z,4.28
2023-04-11T03:28:44.619Z,4.60
2023-04-11T03:33:51.283Z,3.80
2023-04-11T03:38:54.996Z,4.88
2023-04-11T03:44:00.135Z,4.05
2023-04-11T03:49:03.578Z,4.80
2023-04-11T03:54:07.609Z,4.28
2023-04-11T03:59:16.735Z,4.50
2023-04-11T04:04:40.918Z,4.35
2023-04-11T04:09:56.914Z,4.32
2023-04-11T04:15:02.545Z,4.25
2023-04-11T04:20:10.781Z,3.60
2023-04-11T04:25:17.343Z,3.60
2023-04-11T04:30:24.056Z,3.78
2023-04-11T04:35:39.888Z,4.47
2023-04-11T04:40:44.251Z,3.93
2023-04-11T04:45:49.234Z,4.38
2023-04-11T04:50:57.620Z,4.22
2023-04-11T04:56:01.882Z,4.45
2023-04-11T05:01:11.396Z,4.43
2023-04-11T05:06:15.068Z,4.20
2023-04-11T05:11:22.112Z,5.47
2023-04-11T05:16:27.131Z,5.13
2023-04-11T05:21:31.388Z,5.43
2023-04-11T05:26:35.234Z,5.57
2023-04-11T05:31:40.503Z,5.50
2023-04-11T05:36:46.410Z,6.05
2023-04-11T05:41:50.208Z,5.18
2023-04-11T05:46:54.772Z,6.20
2023-04-11T05:51:58.071Z,6.17
2023-04-11T05:57:05.107Z,5.03
2023-04-11T06:02:10.029Z,5.50
2023-04-11T06:07:15.563Z,5.85
2023-04-11T06:12:23.778Z,6.38
2023-04-11T06:17:41.461Z,6.32
2023-04-11T06:22:47.282Z,6.25
2023-04-11T06:27:51.764Z,5.18
2023-04-11T06:32:58.028Z,5.18
2023-04-11T06:38:01.769Z,5.72
2023-04-11T06:43:06.308Z,5.80
2023-04-11T06:48:12.507Z,6.05
2023-04-11T06:53:16.614Z,5.93
2023-04-11T06:58:21.722Z,6.32
2023-04-11T07:03:27.457Z,6.30
2023-04-11T07:08:32.058Z,5.50
2023-04-11T07:13:36.210Z,6.32
2023-04-11T07:18:41.220Z,6.47
2023-04-11T07:23:45.586Z,5.43
2023-04-11T07:28:50.164Z,5.88
2023-04-11T07:33:59.206Z,5.00
2023-04-11T07:39:09.000Z,6.43
2023-04-11T07:44:13.302Z,5.60
2023-04-11T07:49:19.660Z,5.28
2023-04-11T07:54:25.426Z,5.07
2023-04-11T07:59:29.198Z,3.67
2023-04-11T08:04:35.414Z,3.58
2023-04-11T08:09:39.567Z,3.53
2023-04-11T08:14:43.047Z,2.95
2023-04-11T08:19:47.953Z,2.72
2023-04-11T08:24:51.978Z,2.40
2023-04-11T08:29:57.105Z,1.83
2023-04-11T08:35:01.912Z,2.25
2023-04-11T08:40:07.409Z,2.13
2023-04-11T08:45:12.700Z,2.95
2023-04-11T08:50:19.510Z,2.33
2023-04-11T08:55:23.570Z,2.42
2023-04-11T09:00:29.190Z,1.85
2023-04-11T09:05:35.859Z,2.13
2023-04-11T09:10:42.889Z,1.92
2023-04-11T09:15:46.960Z,2.22
2023-04-11T09:20:59.978Z,1.98
2023-04-11T09:26:06.732Z,1.80
2023-04-11T09:31:13.255Z,1.67
2023-04-11T09:36:21.382Z,1.40
2023-04-11T09:41:32.666Z,1.98
2023-04-11T09:46:37.392Z,2.08
2023-04-11T09:56:46.667Z,1.55
2023-04-11T10:01:51.614Z,1.90
2023-04-11T10:07:09.057Z,1.40
2023-04-11T10:12:12.949Z,1.40
2023-04-11T10:17:21.837Z,1.48
2023-04-11T10:23:01.585Z,1.40
2023-04-11T10:28:05.619Z,1.25
2023-04-11T10:33:10.223Z,1.50
2023-04-11T10:38:49.635Z,1.10
2023-04-11T10:44:18.505Z,1.27
2023-04-11T10:49:34.719Z,1.75
2023-04-11T10:54:39.894Z,1.30
2023-04-11T11:05:18.555Z,1.10
2023-04-11T11:10:41.137Z,0.73
2023-04-11T11:15:50.982Z,1.30
2023-04-11T11:20:56.231Z,0.60
2023-04-11T11:26:02.172Z,0.95
2023-04-11T11:31:06.322Z,1.15
2023-04-11T11:36:12.155Z,0.80
2023-04-11T11:41:17.822Z,1.23
2023-04-11T11:46:21.667Z,0.90
2023-04-11T11:51:26.623Z,1.27
2023-04-11T11:56:32.210Z,1.23
2023-04-11T12:01:37.550Z,1.67
2023-04-11T12:06:45.899Z,1.48
2023-04-11T12:11:55.270Z,1.40
2023-04-11T12:16:59.226Z,1.10
2023-04-11T12:22:03.234Z,1.73
2023-04-11T12:27:09.039Z,1.20
2023-04-11T12:32:15.342Z,1.27
2023-04-11T12:37:19.192Z,1.02
2023-04-11T12:42:27.161Z,1.00
2023-04-11T12:47:31.358Z,1.15
2023-04-11T12:52:35.914Z,1.25
2023-04-11T12:57:42.393Z,1.00
2023-04-11T13:02:46.848Z,1.10
2023-04-11T13:07:51.013Z,1.07
2023-04-11T13:12:58.644Z,1.30
2023-04-11T13:18:04.952Z,1.30
2023-04-11T13:23:10.491Z,1.63
2023-04-11T13:28:17.097Z,2.45
2023-04-11T13:33:21.053Z,2.95
2023-04-11T13:38:25.698Z,1.48
2023-04-11T13:43:31.376Z,0.98
2023-04-11T13:48:36.580Z,0.80
2023-04-11T13:53:41.215Z,0.73
2023-04-11T13:58:46.694Z,0.85
2023-04-11T14:03:51.593Z,0.80
2023-04-11T14:08:55.907Z,0.80
2023-04-11T14:14:03.939Z,0.65
2023-04-11T14:19:08.861Z,0.90
2023-04-11T14:24:12.827Z,1.00
2023-04-11T14:29:19.404Z,0.90
2023-04-11T14:34:24.734Z,1.10
2023-04-11T14:39:29.145Z,1.20
2023-04-11T14:44:35.627Z,0.90
2023-04-11T14:49:39.354Z,1.30
2023-04-11T14:54:43.182Z,1.92
2023-04-11T14:59:48.585Z,0.90
2023-04-11T15:04:53.689Z,1.38
2023-04-11T15:09:58.161Z,1.20
2023-04-11T15:15:04.703Z,1.00
2023-04-11T15:20:11.777Z,1.30
2023-04-11T15:25:16.928Z,1.50
2023-04-11T15:30:22.513Z,1.00
2023-04-11T15:35:26.914Z,1.33
2023-04-11T15:40:30.504Z,1.95
2023-04-11T15:45:37.391Z,2.00
2023-04-11T15:50:42.720Z,1.02
2023-04-11T15:55:47.925Z,0.80
2023-04-11T16:00:54.854Z,0.68
2023-04-11T16:05:58.733Z,0.80
2023-04-11T16:11:02.183Z,1.50
2023-04-11T16:16:09.570Z,1.05
2023-04-11T16:21:15.190Z,1.42
2023-04-11T16:26:18.687Z,1.13
2023-04-11T16:31:24.994Z,1.70
2023-04-11T16:36:29.853Z,1.63
2023-04-11T16:41:36.473Z,1.50
2023-04-11T16:46:41.958Z,1.70
2023-04-11T16:51:45.716Z,1.30
2023-04-11T16:56:49.638Z,1.42
2023-04-11T17:01:54.711Z,1.50
2023-04-11T17:12:03.330Z,1.20
2023-04-11T17:17:08.579Z,1.00
2023-04-11T17:22:13.309Z,0.90
2023-04-11T17:27:17.650Z,1.10
2023-04-11T17:32:22.757Z,1.05
2023-04-11T17:37:26.997Z,0.70
2023-04-11T17:42:30.587Z,5.03
2023-04-11T17:47:35.947Z,1.60
2023-04-11T17:52:42.648Z,0.90
2023-04-11T17:57:50.070Z,1.00
2023-04-11T18:03:00.966Z,1.20
2023-04-11T18:08:05.340Z,1.00
2023-04-11T18:13:09.299Z,1.55
2023-04-11T18:18:14.276Z,1.10
2023-04-11T18:23:18.062Z,1.08
2023-04-11T18:28:23.176Z,1.13
2023-04-11T18:33:28.157Z,2.30
2023-04-11T18:38:31.781Z,1.55
2023-04-11T18:43:35.454Z,1.75
2023-04-11T18:48:40.856Z,1.70
2023-04-11T18:53:45.019Z,1.70
2023-04-11T18:58:51.514Z,2.53
2023-04-11T19:04:00.044Z,1.50
2023-04-11T19:09:06.585Z,1.55
2023-04-11T19:14:10.677Z,1.98
2023-04-11T19:19:16.463Z,2.10
2023-04-11T19:24:20.577Z,1.30
2023-04-11T19:29:24.619Z,1.77
2023-04-11T19:34:30.436Z,1.95
2023-04-11T19:39:38.371Z,1.60
2023-04-11T19:44:42.369Z,2.50
2023-04-11T19:49:47.401Z,2.35
2023-04-11T19:59:55.477Z,2.60
2023-04-11T20:05:01.748Z,2.75
2023-04-11T20:10:08.064Z,2.13
2023-04-11T20:15:13.710Z,4.97
2023-04-11T20:20:20.563Z,2.58
2023-04-11T20:25:24.791Z,2.67
2023-04-11T20:30:29.845Z,2.53
2023-04-11T20:40:38.744Z,3.88
2023-04-11T20:45:43.017Z,3.13
2023-04-11T20:50:48.471Z,3.63
2023-04-11T20:55:52.338Z,3.85
2023-04-11T21:00:57.201Z,3.30
2023-04-11T21:06:04.447Z,3.95
2023-04-11T21:11:09.403Z,4.10
2023-04-11T21:16:13.421Z,3.70
2023-04-11T21:21:19.123Z,3.10
2023-04-11T21:31:27.846Z,2.80
2023-04-11T21:36:33.332Z,3.63
2023-04-11T21:41:37.143Z,2.63
2023-04-11T21:46:41.357Z,3.22
2023-04-11T21:51:46.376Z,2.90
2023-04-11T21:56:50.687Z,3.10
2023-04-11T22:01:54.458Z,2.28
2023-04-11T22:12:04.845Z,2.80
2023-04-11T22:17:08.964Z,2.40
2023-04-11T22:22:14.202Z,2.30
2023-04-11T22:27:19.298Z,2.83
2023-04-11T22:32:23.835Z,1.60
2023-04-11T22:37:29.078Z,2.10
2023-04-11T22:42:32.754Z,2.65
2023-04-11T22:47:38.064Z,2.05
2023-04-11T22:52:43.723Z,2.13
2023-04-11T22:57:49.347Z,2.35
2023-04-11T23:02:54.541Z,2.33
2023-04-11T23:08:01.332Z,2.08
2023-04-11T23:13:05.455Z,1.95
2023-04-11T23:18:09.681Z,2.33
2023-04-11T23:23:15.795Z,1.80
2023-04-11T23:28:21.072Z,2.28
2023-04-11T23:33:27.048Z,1.67
2023-04-11T23:38:32.782Z,1.95
2023-04-11T23:43:36.797Z,1.77
2023-04-11T23:48:40.813Z,2.20
2023-04-11T23:53:46.105Z,1.83
